Terminal Aerodrome Forecast
Issued by NWS

Home | Current Version | Previous Version | Text Only | Print | Product List | Glossary On
Versions: 1 2 3 4 5 6 7 8 9 10 11 12 13 14 15 16 17 18 19 20 21 22 23 24 25 26
000
FTUS46 KSEW 222337
TAFSEA
TAF
KSEA 222337Z 2300/2406 29006KT P6SM -SHRA SCT025 BKN035
     FM230100 34007KT P6SM -SHRA SCT025 BKN035
     FM230300 01005KT P6SM SCT035 BKN050
     FM230600 04004KT P6SM SCT040
     FM231200 VRB03KT P6SM BCFG VCSH SCT005 BKN012
     FM231800 21004KT P6SM SCT015 BKN025
     FM232000 24004KT P6SM SKC
     FM240000 17005KT P6SM SCT040 BKN060=

USA.gov is the U.S. government's official web portal to all federal, state and local government web resources and services.